sensor_id;sensor_type;location;lat;lon;timestamp;P1;durP1;ratioP1;P2;durP2;ratioP2
51527;SDS011;37612;51.768;21.590;2022-11-15T00:02:59;44.40;;;21.30;;
51527;SDS011;37612;51.768;21.590;2022-11-15T00:07:00;40.10;;;19.10;;
51527;SDS011;37612;51.768;21.590;2022-11-15T00:11:02;39.60;;;21.30;;
51527;SDS011;37612;51.768;21.590;2022-11-15T00:15:04;36.70;;;20.60;;
51527;SDS011;37612;51.768;21.590;2022-11-15T00:19:05;40.10;;;21.20;;
51527;SDS011;37612;51.768;21.590;2022-11-15T00:23:07;40.60;;;22.00;;
51527;SDS011;37612;51.768;21.590;2022-11-15T00:27:08;44.10;;;21.90;;
51527;SDS011;37612;51.768;21.590;2022-11-15T00:31:11;39.40;;;20.70;;
51527;SDS011;37612;51.768;21.590;2022-11-15T00:35:14;40.30;;;20.20;;
51527;SDS011;37612;51.768;21.590;2022-11-15T00:39:15;44.40;;;21.90;;
51527;SDS011;37612;51.768;21.590;2022-11-15T00:43:16;44.20;;;21.40;;
51527;SDS011;37612;51.768;21.590;2022-11-15T00:47:17;40.40;;;21.00;;
51527;SDS011;37612;51.768;21.590;2022-11-15T00:51:19;38.80;;;20.10;;
51527;SDS011;37612;51.768;21.590;2022-11-15T00:55:20;44.70;;;23.20;;
51527;SDS011;37612;51.768;21.590;2022-11-15T00:59:21;39.50;;;21.80;;
51527;SDS011;37612;51.768;21.590;2022-11-15T01:03:22;38.40;;;20.60;;
51527;SDS011;37612;51.768;21.590;2022-11-15T01:07:23;40.40;;;21.30;;
51527;SDS011;37612;51.768;21.590;2022-11-15T01:11:25;43.80;;;23.00;;
51527;SDS011;37612;51.768;21.590;2022-11-15T01:15:26;47.60;;;24.30;;
51527;SDS011;37612;51.768;21.590;2022-11-15T01:19:27;45.00;;;23.50;;
51527;SDS011;37612;51.768;21.590;2022-11-15T01:23:28;45.20;;;21.20;;
51527;SDS011;37612;51.768;21.590;2022-11-15T01:27:29;42.90;;;23.30;;
51527;SDS011;37612;51.768;21.590;2022-11-15T01:31:30;43.70;;;22.70;;
51527;SDS011;37612;51.768;21.590;2022-11-15T01:35:32;45.80;;;22.10;;
51527;SDS011;37612;51.768;21.590;2022-11-15T01:39:33;39.50;;;19.90;;
51527;SDS011;37612;51.768;21.590;2022-11-15T01:43:35;51.70;;;25.50;;
51527;SDS011;37612;51.768;21.590;2022-11-15T01:47:38;41.00;;;21.10;;
51527;SDS011;37612;51.768;21.590;2022-11-15T01:51:41;50.50;;;24.50;;
51527;SDS011;37612;51.768;21.590;2022-11-15T01:55:43;49.80;;;24.20;;
51527;SDS011;37612;51.768;21.590;2022-11-15T01:59:45;52.50;;;24.60;;
51527;SDS011;37612;51.768;21.590;2022-11-15T02:03:55;44.40;;;21.00;;
51527;SDS011;37612;51.768;21.590;2022-11-15T02:08:00;49.00;;;25.50;;
51527;SDS011;37612;51.768;21.590;2022-11-15T02:12:01;42.80;;;20.80;;
51527;SDS011;37612;51.768;21.590;2022-11-15T02:29:10;45.50;;;22.00;;
51527;SDS011;37612;51.768;21.590;2022-11-15T02:50:54;52.80;;;25.30;;
51527;SDS011;37612;51.768;21.590;2022-11-15T02:54:56;66.30;;;27.30;;
51527;SDS011;37612;51.768;21.590;2022-11-15T03:11:47;57.20;;;25.90;;
51527;SDS011;37612;51.768;21.590;2022-11-15T03:16:04;58.30;;;27.70;;
51527;SDS011;37612;51.768;21.590;2022-11-15T03:20:13;56.70;;;25.80;;
51527;SDS011;37612;51.768;21.590;2022-11-15T03:24:17;65.70;;;30.10;;
51527;SDS011;37612;51.768;21.590;2022-11-15T03:28:29;51.00;;;24.60;;
51527;SDS011;37612;51.768;21.590;2022-11-15T03:32:38;58.10;;;24.30;;
51527;SDS011;37612;51.768;21.590;2022-11-15T03:36:57;57.50;;;25.00;;
51527;SDS011;37612;51.768;21.590;2022-11-15T03:40:59;55.40;;;23.80;;
51527;SDS011;37612;51.768;21.590;2022-11-15T03:49:24;65.90;;;26.70;;
51527;SDS011;37612;51.768;21.590;2022-11-15T03:53:30;54.70;;;23.20;;
51527;SDS011;37612;51.768;21.590;2022-11-15T03:57:32;53.50;;;22.50;;
51527;SDS011;37612;51.768;21.590;2022-11-15T04:01:33;52.30;;;21.10;;
51527;SDS011;37612;51.768;21.590;2022-11-15T04:05:34;52.30;;;23.30;;
51527;SDS011;37612;51.768;21.590;2022-11-15T04:09:36;49.20;;;20.80;;
51527;SDS011;37612;51.768;21.590;2022-11-15T04:13:59;43.00;;;20.20;;
51527;SDS011;37612;51.768;21.590;2022-11-15T04:18:00;49.30;;;20.40;;
51527;SDS011;37612;51.768;21.590;2022-11-15T04:22:01;51.70;;;23.00;;
51527;SDS011;37612;51.768;21.590;2022-11-15T04:26:21;51.50;;;20.60;;
51527;SDS011;37612;51.768;21.590;2022-11-15T04:30:23;56.50;;;22.20;;
51527;SDS011;37612;51.768;21.590;2022-11-15T04:34:24;51.40;;;22.20;;
51527;SDS011;37612;51.768;21.590;2022-11-15T04:38:26;47.30;;;19.00;;
51527;SDS011;37612;51.768;21.590;2022-11-15T04:42:27;52.90;;;20.30;;
51527;SDS011;37612;51.768;21.590;2022-11-15T04:46:28;48.80;;;20.80;;
51527;SDS011;37612;51.768;21.590;2022-11-15T04:50:29;55.00;;;21.40;;
51527;SDS011;37612;51.768;21.590;2022-11-15T04:54:30;45.30;;;19.10;;
51527;SDS011;37612;51.768;21.590;2022-11-15T04:58:31;51.30;;;20.50;;
51527;SDS011;37612;51.768;21.590;2022-11-15T05:02:33;41.70;;;18.40;;
51527;SDS011;37612;51.768;21.590;2022-11-15T05:06:52;50.60;;;20.60;;
51527;SDS011;37612;51.768;21.590;2022-11-15T05:10:53;47.10;;;19.10;;
51527;SDS011;37612;51.768;21.590;2022-11-15T05:14:55;43.60;;;18.20;;
51527;SDS011;37612;51.768;21.590;2022-11-15T05:18:56;48.70;;;19.10;;
51527;SDS011;37612;51.768;21.590;2022-11-15T05:22:57;44.70;;;17.60;;
51527;SDS011;37612;51.768;21.590;2022-11-15T05:26:58;45.70;;;19.10;;
51527;SDS011;37612;51.768;21.590;2022-11-15T05:31:00;43.50;;;18.90;;
51527;SDS011;37612;51.768;21.590;2022-11-15T05:35:03;45.20;;;18.50;;
51527;SDS011;37612;51.768;21.590;2022-11-15T05:39:08;45.70;;;18.90;;
51527;SDS011;37612;51.768;21.590;2022-11-15T05:43:09;42.50;;;18.40;;
51527;SDS011;37612;51.768;21.590;2022-11-15T05:47:12;52.40;;;20.00;;
51527;SDS011;37612;51.768;21.590;2022-11-15T05:51:18;42.60;;;17.90;;
51527;SDS011;37612;51.768;21.590;2022-11-15T05:55:21;78.10;;;34.50;;
51527;SDS011;37612;51.768;21.590;2022-11-15T05:59:22;52.60;;;24.20;;
51527;SDS011;37612;51.768;21.590;2022-11-15T06:03:24;60.30;;;29.70;;
51527;SDS011;37612;51.768;21.590;2022-11-15T06:07:26;44.20;;;21.90;;
51527;SDS011;37612;51.768;21.590;2022-11-15T06:11:27;71.70;;;38.20;;
51527;SDS011;37612;51.768;21.590;2022-11-15T06:15:32;91.70;;;49.90;;
51527;SDS011;37612;51.768;21.590;2022-11-15T06:19:35;36.80;;;16.30;;
51527;SDS011;37612;51.768;21.590;2022-11-15T06:23:36;36.50;;;17.50;;
51527;SDS011;37612;51.768;21.590;2022-11-15T06:27:37;35.60;;;18.90;;
51527;SDS011;37612;51.768;21.590;2022-11-15T06:31:38;42.40;;;22.20;;
51527;SDS011;37612;51.768;21.590;2022-11-15T06:35:39;35.20;;;18.50;;
51527;SDS011;37612;51.768;21.590;2022-11-15T06:39:41;35.60;;;16.70;;
51527;SDS011;37612;51.768;21.590;2022-11-15T06:43:42;31.90;;;16.20;;
51527;SDS011;37612;51.768;21.590;2022-11-15T06:47:46;40.10;;;20.20;;
51527;SDS011;37612;51.768;21.590;2022-11-15T06:51:47;38.70;;;18.80;;
51527;SDS011;37612;51.768;21.590;2022-11-15T06:55:49;62.60;;;31.20;;
51527;SDS011;37612;51.768;21.590;2022-11-15T06:59:50;45.20;;;25.50;;
51527;SDS011;37612;51.768;21.590;2022-11-15T07:03:51;44.70;;;24.30;;
51527;SDS011;37612;51.768;21.590;2022-11-15T07:07:53;36.60;;;16.60;;
51527;SDS011;37612;51.768;21.590;2022-11-15T07:11:55;34.80;;;15.90;;
51527;SDS011;37612;51.768;21.590;2022-11-15T07:15:56;45.90;;;25.30;;
51527;SDS011;37612;51.768;21.590;2022-11-15T07:19:57;70.30;;;34.40;;
51527;SDS011;37612;51.768;21.590;2022-11-15T07:23:58;39.30;;;18.60;;
51527;SDS011;37612;51.768;21.590;2022-11-15T07:28:00;27.50;;;14.40;;
51527;SDS011;37612;51.768;21.590;2022-11-15T07:32:02;39.70;;;23.10;;
51527;SDS011;37612;51.768;21.590;2022-11-15T07:36:04;55.30;;;31.80;;
51527;SDS011;37612;51.768;21.590;2022-11-15T07:40:07;35.00;;;17.50;;
51527;SDS011;37612;51.768;21.590;2022-11-15T07:44:09;45.30;;;23.10;;
51527;SDS011;37612;51.768;21.590;2022-11-15T07:48:10;40.20;;;20.30;;
51527;SDS011;37612;51.768;21.590;2022-11-15T07:52:12;43.30;;;21.80;;
51527;SDS011;37612;51.768;21.590;2022-11-15T07:56:13;33.30;;;16.20;;
51527;SDS011;37612;51.768;21.590;2022-11-15T08:00:15;58.10;;;31.10;;
51527;SDS011;37612;51.768;21.590;2022-11-15T08:04:17;44.10;;;23.10;;
51527;SDS011;37612;51.768;21.590;2022-11-15T08:08:18;44.00;;;24.40;;
51527;SDS011;37612;51.768;21.590;2022-11-15T08:12:19;62.40;;;33.90;;
51527;SDS011;37612;51.768;21.590;2022-11-15T08:16:20;54.10;;;26.00;;
51527;SDS011;37612;51.768;21.590;2022-11-15T08:20:22;38.80;;;20.20;;
51527;SDS011;37612;51.768;21.590;2022-11-15T08:24:23;34.60;;;16.30;;
51527;SDS011;37612;51.768;21.590;2022-11-15T08:28:25;43.50;;;22.90;;
51527;SDS011;37612;51.768;21.590;2022-11-15T08:32:26;45.60;;;22.80;;
51527;SDS011;37612;51.768;21.590;2022-11-15T08:36:27;37.60;;;18.70;;
51527;SDS011;37612;51.768;21.590;2022-11-15T08:40:28;103.40;;;52.20;;
51527;SDS011;37612;51.768;21.590;2022-11-15T08:44:29;35.60;;;20.90;;
51527;SDS011;37612;51.768;21.590;2022-11-15T08:48:30;38.70;;;19.70;;
51527;SDS011;37612;51.768;21.590;2022-11-15T08:52:32;33.50;;;16.90;;
51527;SDS011;37612;51.768;21.590;2022-11-15T08:56:33;31.90;;;15.20;;
51527;SDS011;37612;51.768;21.590;2022-11-15T09:00:34;36.20;;;20.10;;
51527;SDS011;37612;51.768;21.590;2022-11-15T09:04:35;36.00;;;15.20;;
51527;SDS011;37612;51.768;21.590;2022-11-15T09:08:36;31.30;;;17.80;;
51527;SDS011;37612;51.768;21.590;2022-11-15T09:12:37;26.50;;;13.60;;
51527;SDS011;37612;51.768;21.590;2022-11-15T09:16:39;29.60;;;15.60;;
51527;SDS011;37612;51.768;21.590;2022-11-15T09:20:40;29.50;;;15.10;;
51527;SDS011;37612;51.768;21.590;2022-11-15T09:24:41;30.80;;;14.60;;
51527;SDS011;37612;51.768;21.590;2022-11-15T09:28:42;25.80;;;14.80;;
51527;SDS011;37612;51.768;21.590;2022-11-15T09:32:44;34.80;;;17.70;;
51527;SDS011;37612;51.768;21.590;2022-11-15T09:36:45;26.30;;;15.30;;
51527;SDS011;37612;51.768;21.590;2022-11-15T09:40:48;30.80;;;14.70;;
51527;SDS011;37612;51.768;21.590;2022-11-15T09:49:14;28.20;;;15.10;;
51527;SDS011;37612;51.768;21.590;2022-11-15T10:06:24;21.20;;;12.90;;
51527;SDS011;37612;51.768;21.590;2022-11-15T10:10:43;20.90;;;11.50;;
51527;SDS011;37612;51.768;21.590;2022-11-15T10:14:48;26.10;;;14.80;;
51527;SDS011;37612;51.768;21.590;2022-11-15T10:23:00;24.50;;;11.70;;
51527;SDS011;37612;51.768;21.590;2022-11-15T10:27:12;28.70;;;14.40;;
51527;SDS011;37612;51.768;21.590;2022-11-15T10:31:25;24.80;;;14.60;;
51527;SDS011;37612;51.768;21.590;2022-11-15T10:35:29;19.10;;;12.20;;
51527;SDS011;37612;51.768;21.590;2022-11-15T10:43:34;24.20;;;13.70;;
51527;SDS011;37612;51.768;21.590;2022-11-15T10:47:35;22.90;;;13.00;;
51527;SDS011;37612;51.768;21.590;2022-11-15T10:51:39;23.60;;;13.50;;
51527;SDS011;37612;51.768;21.590;2022-11-15T10:55:56;22.80;;;13.50;;
51527;SDS011;37612;51.768;21.590;2022-11-15T11:00:00;23.50;;;14.60;;
51527;SDS011;37612;51.768;21.590;2022-11-15T11:04:25;23.10;;;13.60;;
51527;SDS011;37612;51.768;21.590;2022-11-15T11:08:26;22.80;;;13.80;;
51527;SDS011;37612;51.768;21.590;2022-11-15T11:12:29;23.60;;;14.80;;
51527;SDS011;37612;51.768;21.590;2022-11-15T11:16:36;31.50;;;17.80;;
51527;SDS011;37612;51.768;21.590;2022-11-15T11:20:46;28.00;;;15.60;;
51527;SDS011;37612;51.768;21.590;2022-11-15T11:29:20;25.10;;;14.90;;
51527;SDS011;37612;51.768;21.590;2022-11-15T11:33:39;21.60;;;13.20;;
51527;SDS011;37612;51.768;21.590;2022-11-15T11:50:29;23.80;;;15.00;;
51527;SDS011;37612;51.768;21.590;2022-11-15T11:58:43;24.70;;;15.80;;
51527;SDS011;37612;51.768;21.590;2022-11-15T12:06:59;22.30;;;12.90;;
51527;SDS011;37612;51.768;21.590;2022-11-15T12:11:10;25.50;;;14.80;;
51527;SDS011;37612;51.768;21.590;2022-11-15T12:15:18;26.40;;;16.00;;
51527;SDS011;37612;51.768;21.590;2022-11-15T12:19:23;24.40;;;15.20;;
51527;SDS011;37612;51.768;21.590;2022-11-15T12:23:25;27.80;;;16.90;;
51527;SDS011;37612;51.768;21.590;2022-11-15T12:27:38;24.90;;;15.00;;
51527;SDS011;37612;51.768;21.590;2022-11-15T12:31:56;23.20;;;15.20;;
51527;SDS011;37612;51.768;21.590;2022-11-15T12:36:02;24.70;;;15.40;;
51527;SDS011;37612;51.768;21.590;2022-11-15T12:44:11;31.80;;;19.00;;
51527;SDS011;37612;51.768;21.590;2022-11-15T12:52:17;28.80;;;17.50;;
51527;SDS011;37612;51.768;21.590;2022-11-15T12:56:20;32.20;;;17.70;;
51527;SDS011;37612;51.768;21.590;2022-11-15T13:04:28;33.80;;;19.20;;
51527;SDS011;37612;51.768;21.590;2022-11-15T13:08:37;28.70;;;18.60;;
51527;SDS011;37612;51.768;21.590;2022-11-15T13:16:45;32.80;;;19.70;;
51527;SDS011;37612;51.768;21.590;2022-11-15T13:20:48;33.20;;;19.10;;
51527;SDS011;37612;51.768;21.590;2022-11-15T13:24:49;32.00;;;18.70;;
51527;SDS011;37612;51.768;21.590;2022-11-15T13:28:51;33.10;;;19.10;;
51527;SDS011;37612;51.768;21.590;2022-11-15T13:32:55;32.00;;;19.30;;
51527;SDS011;37612;51.768;21.590;2022-11-15T13:37:01;34.20;;;20.30;;
51527;SDS011;37612;51.768;21.590;2022-11-15T13:41:13;35.00;;;19.00;;
51527;SDS011;37612;51.768;21.590;2022-11-15T13:45:19;33.60;;;20.20;;
51527;SDS011;37612;51.768;21.590;2022-11-15T13:49:21;39.60;;;21.70;;
51527;SDS011;37612;51.768;21.590;2022-11-15T13:53:32;33.20;;;19.60;;
51527;SDS011;37612;51.768;21.590;2022-11-15T14:01:41;33.80;;;19.20;;
51527;SDS011;37612;51.768;21.590;2022-11-15T14:05:44;31.10;;;18.20;;
51527;SDS011;37612;51.768;21.590;2022-11-15T14:10:32;35.70;;;19.80;;
51527;SDS011;37612;51.768;21.590;2022-11-15T14:14:33;35.40;;;21.60;;
51527;SDS011;37612;51.768;21.590;2022-11-15T14:22:53;44.20;;;25.50;;
51527;SDS011;37612;51.768;21.590;2022-11-15T14:27:14;38.30;;;21.50;;
51527;SDS011;37612;51.768;21.590;2022-11-15T14:31:19;35.60;;;20.10;;
51527;SDS011;37612;51.768;21.590;2022-11-15T14:35:22;34.70;;;20.10;;
51527;SDS011;37612;51.768;21.590;2022-11-15T14:39:24;34.70;;;19.50;;
51527;SDS011;37612;51.768;21.590;2022-11-15T14:43:25;35.30;;;19.60;;
51527;SDS011;37612;51.768;21.590;2022-11-15T14:47:27;30.30;;;18.50;;
51527;SDS011;37612;51.768;21.590;2022-11-15T14:51:28;37.60;;;21.70;;
51527;SDS011;37612;51.768;21.590;2022-11-15T14:55:30;39.00;;;21.50;;
51527;SDS011;37612;51.768;21.590;2022-11-15T14:59:35;35.80;;;20.50;;
51527;SDS011;37612;51.768;21.590;2022-11-15T15:03:36;40.80;;;22.40;;
51527;SDS011;37612;51.768;21.590;2022-11-15T15:07:38;41.90;;;23.00;;
51527;SDS011;37612;51.768;21.590;2022-11-15T15:11:39;38.80;;;21.50;;
51527;SDS011;37612;51.768;21.590;2022-11-15T15:15:40;39.80;;;22.00;;
51527;SDS011;37612;51.768;21.590;2022-11-15T15:19:41;35.40;;;21.30;;
51527;SDS011;37612;51.768;21.590;2022-11-15T15:23:43;35.50;;;20.90;;
51527;SDS011;37612;51.768;21.590;2022-11-15T15:27:45;41.10;;;22.60;;
51527;SDS011;37612;51.768;21.590;2022-11-15T15:31:46;48.50;;;26.20;;
51527;SDS011;37612;51.768;21.590;2022-11-15T15:35:47;49.60;;;27.20;;
51527;SDS011;37612;51.768;21.590;2022-11-15T15:39:54;51.40;;;27.40;;
51527;SDS011;37612;51.768;21.590;2022-11-15T15:43:57;50.60;;;26.60;;
51527;SDS011;37612;51.768;21.590;2022-11-15T15:47:58;43.40;;;23.80;;
51527;SDS011;37612;51.768;21.590;2022-11-15T15:51:59;43.50;;;23.70;;
51527;SDS011;37612;51.768;21.590;2022-11-15T15:56:00;44.50;;;23.60;;
51527;SDS011;37612;51.768;21.590;2022-11-15T16:00:02;40.20;;;23.10;;
51527;SDS011;37612;51.768;21.590;2022-11-15T16:04:04;37.10;;;20.60;;
51527;SDS011;37612;51.768;21.590;2022-11-15T16:08:07;46.10;;;25.50;;
51527;SDS011;37612;51.768;21.590;2022-11-15T16:16:20;43.40;;;22.80;;
51527;SDS011;37612;51.768;21.590;2022-11-15T16:24:35;55.80;;;31.20;;
51527;SDS011;37612;51.768;21.590;2022-11-15T16:28:36;49.80;;;26.90;;
51527;SDS011;37612;51.768;21.590;2022-11-15T16:32:38;45.60;;;26.20;;
51527;SDS011;37612;51.768;21.590;2022-11-15T16:36:39;38.70;;;22.40;;
51527;SDS011;37612;51.768;21.590;2022-11-15T16:40:40;43.20;;;23.70;;
51527;SDS011;37612;51.768;21.590;2022-11-15T16:44:41;53.10;;;26.80;;
51527;SDS011;37612;51.768;21.590;2022-11-15T16:48:43;48.60;;;25.10;;
51527;SDS011;37612;51.768;21.590;2022-11-15T16:52:44;59.70;;;30.70;;
51527;SDS011;37612;51.768;21.590;2022-11-15T16:56:45;64.60;;;31.80;;
51527;SDS011;37612;51.768;21.590;2022-11-15T17:00:51;59.50;;;30.30;;
51527;SDS011;37612;51.768;21.590;2022-11-15T17:04:53;56.60;;;28.50;;
51527;SDS011;37612;51.768;21.590;2022-11-15T17:08:54;62.10;;;31.60;;
51527;SDS011;37612;51.768;21.590;2022-11-15T17:12:56;66.40;;;32.00;;
51527;SDS011;37612;51.768;21.590;2022-11-15T17:16:57;56.00;;;29.00;;
51527;SDS011;37612;51.768;21.590;2022-11-15T17:21:02;61.70;;;29.50;;
51527;SDS011;37612;51.768;21.590;2022-11-15T17:25:05;60.30;;;30.70;;
51527;SDS011;37612;51.768;21.590;2022-11-15T17:29:07;56.70;;;28.30;;
51527;SDS011;37612;51.768;21.590;2022-11-15T17:33:08;51.80;;;25.50;;
51527;SDS011;37612;51.768;21.590;2022-11-15T17:37:09;57.30;;;27.20;;
51527;SDS011;37612;51.768;21.590;2022-11-15T17:41:11;57.10;;;27.40;;
51527;SDS011;37612;51.768;21.590;2022-11-15T17:45:14;55.90;;;26.90;;
51527;SDS011;37612;51.768;21.590;2022-11-15T17:49:15;59.90;;;30.00;;
51527;SDS011;37612;51.768;21.590;2022-11-15T17:53:17;56.40;;;27.90;;
51527;SDS011;37612;51.768;21.590;2022-11-15T17:57:18;60.90;;;28.60;;
51527;SDS011;37612;51.768;21.590;2022-11-15T18:01:23;66.10;;;28.80;;
51527;SDS011;37612;51.768;21.590;2022-11-15T18:05:29;59.90;;;29.00;;
51527;SDS011;37612;51.768;21.590;2022-11-15T18:09:30;66.50;;;28.80;;
51527;SDS011;37612;51.768;21.590;2022-11-15T18:13:32;71.70;;;30.80;;
51527;SDS011;37612;51.768;21.590;2022-11-15T18:17:37;52.60;;;25.60;;
51527;SDS011;37612;51.768;21.590;2022-11-15T18:21:43;73.90;;;31.60;;
51527;SDS011;37612;51.768;21.590;2022-11-15T18:26:02;54.50;;;24.20;;
51527;SDS011;37612;51.768;21.590;2022-11-15T18:30:05;72.50;;;29.80;;
51527;SDS011;37612;51.768;21.590;2022-11-15T18:34:07;62.10;;;28.30;;
51527;SDS011;37612;51.768;21.590;2022-11-15T18:38:09;59.90;;;25.00;;
51527;SDS011;37612;51.768;21.590;2022-11-15T18:42:14;58.00;;;26.80;;
51527;SDS011;37612;51.768;21.590;2022-11-15T18:46:16;59.50;;;27.10;;
51527;SDS011;37612;51.768;21.590;2022-11-15T18:50:19;64.30;;;27.50;;
51527;SDS011;37612;51.768;21.590;2022-11-15T18:54:21;70.40;;;28.10;;
51527;SDS011;37612;51.768;21.590;2022-11-15T18:58:22;55.80;;;25.00;;
51527;SDS011;37612;51.768;21.590;2022-11-15T19:02:25;56.50;;;26.20;;
51527;SDS011;37612;51.768;21.590;2022-11-15T19:06:27;64.50;;;27.00;;
51527;SDS011;37612;51.768;21.590;2022-11-15T19:10:29;67.50;;;27.90;;
51527;SDS011;37612;51.768;21.590;2022-11-15T19:14:31;59.50;;;25.80;;
51527;SDS011;37612;51.768;21.590;2022-11-15T19:18:33;61.40;;;26.40;;
51527;SDS011;37612;51.768;21.590;2022-11-15T19:22:34;40.00;;;17.30;;
51527;SDS011;37612;51.768;21.590;2022-11-15T19:26:35;52.70;;;22.60;;
51527;SDS011;37612;51.768;21.590;2022-11-15T19:30:37;51.80;;;21.70;;
51527;SDS011;37612;51.768;21.590;2022-11-15T19:34:39;48.70;;;20.70;;
51527;SDS011;37612;51.768;21.590;2022-11-15T19:38:41;45.50;;;20.90;;
51527;SDS011;37612;51.768;21.590;2022-11-15T19:42:43;42.80;;;20.50;;
51527;SDS011;37612;51.768;21.590;2022-11-15T19:50:47;68.00;;;26.60;;
51527;SDS011;37612;51.768;21.590;2022-11-15T19:54:49;63.00;;;26.80;;
51527;SDS011;37612;51.768;21.590;2022-11-15T19:58:51;53.90;;;24.80;;
51527;SDS011;37612;51.768;21.590;2022-11-15T20:02:54;58.10;;;25.00;;
51527;SDS011;37612;51.768;21.590;2022-11-15T20:06:58;57.20;;;22.70;;
51527;SDS011;37612;51.768;21.590;2022-11-15T20:11:08;53.00;;;22.40;;
51527;SDS011;37612;51.768;21.590;2022-11-15T20:15:10;54.90;;;22.20;;
51527;SDS011;37612;51.768;21.590;2022-11-15T20:19:11;47.40;;;20.80;;
51527;SDS011;37612;51.768;21.590;2022-11-15T20:23:17;46.20;;;20.60;;
51527;SDS011;37612;51.768;21.590;2022-11-15T20:27:18;41.80;;;18.90;;
51527;SDS011;37612;51.768;21.590;2022-11-15T20:31:19;47.00;;;20.60;;
51527;SDS011;37612;51.768;21.590;2022-11-15T20:35:22;47.80;;;20.60;;
51527;SDS011;37612;51.768;21.590;2022-11-15T20:39:23;42.50;;;18.70;;
51527;SDS011;37612;51.768;21.590;2022-11-15T20:43:24;43.00;;;19.50;;
51527;SDS011;37612;51.768;21.590;2022-11-15T20:47:28;39.10;;;17.20;;
51527;SDS011;37612;51.768;21.590;2022-11-15T20:51:30;42.90;;;19.30;;
51527;SDS011;37612;51.768;21.590;2022-11-15T20:55:32;38.70;;;17.40;;
51527;SDS011;37612;51.768;21.590;2022-11-15T20:59:33;42.70;;;19.30;;
51527;SDS011;37612;51.768;21.590;2022-11-15T21:03:34;36.40;;;17.20;;
51527;SDS011;37612;51.768;21.590;2022-11-15T21:07:36;33.60;;;15.10;;
51527;SDS011;37612;51.768;21.590;2022-11-15T21:11:39;33.90;;;16.70;;
51527;SDS011;37612;51.768;21.590;2022-11-15T21:16:00;30.00;;;14.10;;
51527;SDS011;37612;51.768;21.590;2022-11-15T21:20:02;36.50;;;16.10;;
51527;SDS011;37612;51.768;21.590;2022-11-15T21:24:04;37.80;;;17.20;;
51527;SDS011;37612;51.768;21.590;2022-11-15T21:28:07;34.90;;;15.50;;
51527;SDS011;37612;51.768;21.590;2022-11-15T21:32:08;32.40;;;15.30;;
51527;SDS011;37612;51.768;21.590;2022-11-15T21:36:09;35.50;;;15.80;;
51527;SDS011;37612;51.768;21.590;2022-11-15T21:40:11;34.00;;;15.30;;
51527;SDS011;37612;51.768;21.590;2022-11-15T21:44:12;36.50;;;15.40;;
51527;SDS011;37612;51.768;21.590;2022-11-15T21:48:13;34.00;;;14.20;;
51527;SDS011;37612;51.768;21.590;2022-11-15T21:52:14;32.40;;;14.00;;
51527;SDS011;37612;51.768;21.590;2022-11-15T21:56:16;33.30;;;13.00;;
51527;SDS011;37612;51.768;21.590;2022-11-15T22:00:17;43.50;;;16.20;;
51527;SDS011;37612;51.768;21.590;2022-11-15T22:04:37;35.70;;;15.20;;
51527;SDS011;37612;51.768;21.590;2022-11-15T22:08:38;35.20;;;15.00;;
51527;SDS011;37612;51.768;21.590;2022-11-15T22:12:40;40.30;;;16.80;;
51527;SDS011;37612;51.768;21.590;2022-11-15T22:16:42;39.00;;;15.80;;
51527;SDS011;37612;51.768;21.590;2022-11-15T22:24:57;31.20;;;14.90;;
51527;SDS011;37612;51.768;21.590;2022-11-15T22:28:59;34.60;;;16.50;;
51527;SDS011;37612;51.768;21.590;2022-11-15T22:33:00;34.00;;;14.80;;
51527;SDS011;37612;51.768;21.590;2022-11-15T22:37:01;37.70;;;15.60;;
51527;SDS011;37612;51.768;21.590;2022-11-15T22:41:02;32.80;;;13.90;;
51527;SDS011;37612;51.768;21.590;2022-11-15T22:45:04;31.70;;;13.70;;
51527;SDS011;37612;51.768;21.590;2022-11-15T22:49:05;28.50;;;12.70;;
51527;SDS011;37612;51.768;21.590;2022-11-15T22:53:09;31.50;;;13.10;;
51527;SDS011;37612;51.768;21.590;2022-11-15T22:57:10;26.70;;;12.80;;
51527;SDS011;37612;51.768;21.590;2022-11-15T23:01:17;29.10;;;12.80;;
51527;SDS011;37612;51.768;21.590;2022-11-15T23:05:21;30.20;;;12.90;;
51527;SDS011;37612;51.768;21.590;2022-11-15T23:09:23;30.30;;;12.30;;
51527;SDS011;37612;51.768;21.590;2022-11-15T23:13:25;25.90;;;13.20;;
51527;SDS011;37612;51.768;21.590;2022-11-15T23:17:29;32.40;;;14.30;;
51527;SDS011;37612;51.768;21.590;2022-11-15T23:21:33;27.50;;;12.70;;
51527;SDS011;37612;51.768;21.590;2022-11-15T23:25:58;34.00;;;13.40;;
51527;SDS011;37612;51.768;21.590;2022-11-15T23:30:00;28.10;;;12.00;;
51527;SDS011;37612;51.768;21.590;2022-11-15T23:34:20;23.50;;;9.90;;
51527;SDS011;37612;51.768;21.590;2022-11-15T23:38:21;31.10;;;13.00;;
51527;SDS011;37612;51.768;21.590;2022-11-15T23:42:22;27.20;;;11.60;;
51527;SDS011;37612;51.768;21.590;2022-11-15T23:46:24;27.80;;;12.00;;
51527;SDS011;37612;51.768;21.590;2022-11-15T23:50:25;28.10;;;13.60;;
51527;SDS011;37612;51.768;21.590;2022-11-15T23:54:26;25.70;;;12.20;;
51527;SDS011;37612;51.768;21.590;2022-11-15T23:58:28;26.20;;;12.50;;
